Startpagina
METAR-TAF:

METAR-TAF

Vliegvelden :

Karachi, Pakistan

breedte: 24-54N, lengte: 067-08E, hoogte: 21 m

Actueel weer

Dit bericht is 32 minuten geleden gemaakt, om 19:25 UTC
Wind 7 kt uit het westzuidwesten
Temperatuur 28°C
Vochtigheid 66%
Druk 1012 hPa
Zicht: 6000 m
Verspreide wolken op 10000 ft

METAR: OPKC 151925Z 25007KT 6000 SCT100 28/21 Q1012 NOSIG

Tijdstip: 00:57 (19:57 UTC)

Verwachting

Dit bericht is 4 uur en het 27 minuten geleden gemaakt, om 15:30 UTC
Verwachting geldig van 15 om 18 UTC tot 16 om 03 UTC
Wind 6 kt uit het westen
Zicht: 5000 m
Gebroken wolken op 10000 ft
Heiigheid
Tijdelijke
van 16 om 00 UTC tot 16 om 03 UTC
Wind 3 kt uit variabele richting
Zicht: 3000 m
Verspreide wolken op 3000 ft
rook

TAF: OPKC 151530Z 1518/1603 27006KT 5000 HZ BKN100 TEMPO 1600/1603 VRB03KT 3000 FU SCT030

Waarnemingen en weersverwachtingen van meer dan 4000 vliegvelden (METAR en TAF).

De beschikbare stations zijn de gele en rode punten op de kaart.

Ga met uw muis naar het station om de naam te zien.

Klik dan om waarnemingen en weersverwachtingen te zien.

kaart wijzigen: klik op de groene knoppen met een zwart kruis om in te zoomen, op de groene knop met een streepje om uit te zoomen of op de groene pijlen voor aangrenzende kaarten.


METAR-TAF: